Time;durP1;ratioP1;P1;durP2;ratioP2;P2;SDS_P1;SDS_P2;PMS_P1;PMS_P2;Temp;Humidity;BMP_temperature;BMP_pressure;BME280_temperature;BME280_humidity;BME280_pressure;Samples;Min_cycle;Max_cycle;Signal;HPM_P1;HPM_P2
2024/04/11 00:01:26;;;;;;;1.40;1.10;;;13.40;81.90;;;;;;5448271;26;20242;-68
2024/04/11 00:03:53;;;;;;;1.50;0.90;;;13.30;82.00;;;;;;5440502;26;20490;-68
2024/04/11 00:06:22;;;;;;;1.20;1.10;;;13.30;82.00;;;;;;5448145;26;20300;-69
2024/04/11 00:08:48;;;;;;;1.70;1.20;;;13.30;82.10;;;;;;5445878;26;20233;-69
2024/04/11 00:11:18;;;;;;;1.10;1.00;;;13.30;82.00;;;;;;5448811;26;20243;-68
2024/04/11 00:13:44;;;;;;;1.50;1.10;;;13.40;82.10;;;;;;5435444;26;20263;-68
2024/04/11 00:16:13;;;;;;;1.77;1.30;;;13.40;82.10;;;;;;5447580;26;20244;-68
2024/04/11 00:18:42;;;;;;;1.10;1.00;;;13.30;82.20;;;;;;5449627;26;20708;-69
2024/04/11 00:21:11;;;;;;;1.60;1.50;;;13.30;82.40;;;;;;5445543;26;20845;-69
2024/04/11 00:23:38;;;;;;;3.13;1.50;;;13.20;82.40;;;;;;5436996;26;20633;-69
2024/04/11 00:26:06;;;;;;;2.13;1.40;;;13.20;82.60;;;;;;5451198;26;20233;-69
2024/04/11 00:28:33;;;;;;;1.93;1.30;;;13.10;82.70;;;;;;5448536;26;20522;-69
2024/04/11 00:31:02;;;;;;;1.43;1.10;;;13.10;82.80;;;;;;5450106;26;20582;-69
2024/04/11 00:33:28;;;;;;;2.77;1.30;;;13.10;83.00;;;;;;5449291;26;20303;-68
2024/04/11 00:35:59;;;;;;;2.40;1.30;;;13.00;83.10;;;;;;5450676;26;20240;-67
2024/04/11 00:38:27;;;;;;;3.73;1.70;;;13.00;83.10;;;;;;5449194;26;20721;-68
2024/04/11 00:40:56;;;;;;;2.17;1.37;;;13.00;83.20;;;;;;5447126;26;20341;-67
2024/04/11 00:43:22;;;;;;;2.30;1.53;;;13.00;83.30;;;;;;5449407;26;20300;-66
2024/04/11 00:45:51;;;;;;;2.80;1.50;;;13.00;83.30;;;;;;5434742;26;20288;-67
2024/04/11 00:48:18;;;;;;;2.40;1.50;;;13.00;83.40;;;;;;5440257;26;21118;-66
2024/04/11 00:50:48;;;;;;;2.20;1.33;;;13.00;83.60;;;;;;5435831;26;20273;-67
2024/04/11 00:53:21;;;;;;;1.97;1.30;;;12.90;83.60;;;;;;5423893;26;20292;-67
2024/04/11 00:55:50;;;;;;;3.13;1.30;;;12.90;83.70;;;;;;5435264;26;20540;-66
2024/04/11 00:58:17;;;;;;;1.90;1.57;;;12.90;83.90;;;;;;5440576;26;20698;-67
2024/04/11 01:00:46;;;;;;;1.83;1.40;;;12.90;84.00;;;;;;5451492;26;20233;-67
2024/04/11 01:03:14;;;;;;;3.27;1.50;;;12.80;84.00;;;;;;5448462;26;20286;-67
2024/04/11 01:05:43;;;;;;;3.97;2.17;;;12.80;84.00;;;;;;5448530;26;20342;-68
2024/04/11 01:08:09;;;;;;;3.60;2.23;;;12.70;84.20;;;;;;5446751;26;20292;-68
2024/04/11 01:10:41;;;;;;;5.40;2.00;;;12.70;84.20;;;;;;5451319;26;20285;-68
2024/04/11 01:13:07;;;;;;;3.27;1.73;;;12.70;84.30;;;;;;5449617;26;20577;-68
2024/04/11 01:15:37;;;;;;;2.67;1.80;;;12.70;84.20;;;;;;5447262;26;20239;-69
2024/04/11 01:18:03;;;;;;;3.33;1.80;;;12.70;84.20;;;;;;5449460;26;20262;-68
2024/04/11 01:20:32;;;;;;;3.33;2.00;;;12.70;84.20;;;;;;5451013;26;20240;-68
2024/04/11 01:23:01;;;;;;;4.07;2.07;;;12.70;84.20;;;;;;5448429;26;20627;-68
2024/04/11 01:25:30;;;;;;;1.70;1.60;;;12.70;84.20;;;;;;5450413;26;20720;-68
2024/04/11 01:27:57;;;;;;;2.17;1.80;;;12.70;84.30;;;;;;5450120;26;20233;-68
2024/04/11 01:30:27;;;;;;;2.67;1.90;;;12.80;84.40;;;;;;5450666;26;20295;-68
2024/04/11 01:32:59;;;;;;;2.73;1.77;;;12.70;84.40;;;;;;5450453;26;20327;-68
2024/04/11 01:35:31;;;;;;;3.83;2.50;;;12.70;84.40;;;;;;5442536;26;20707;-68
2024/04/11 01:38:00;;;;;;;5.50;2.37;;;12.60;84.50;;;;;;5438357;26;20252;-68
2024/04/11 01:40:34;;;;;;;4.13;2.43;;;12.60;84.50;;;;;;5445649;26;20271;-67
2024/04/11 01:43:01;;;;;;;2.43;1.97;;;12.60;84.50;;;;;;5440351;26;20226;-68
2024/04/11 01:45:31;;;;;;;4.30;2.00;;;12.50;84.60;;;;;;5452586;26;20259;-68
2024/04/11 01:47:58;;;;;;;2.60;1.90;;;12.50;84.80;;;;;;5447075;26;20233;-68
2024/04/11 01:50:26;;;;;;;2.93;1.80;;;12.50;84.80;;;;;;5449808;26;20238;-68
2024/04/11 01:52:54;;;;;;;2.00;1.43;;;12.50;85.00;;;;;;5443656;26;20263;-68
2024/04/11 01:55:25;;;;;;;4.07;1.57;;;12.40;85.00;;;;;;5436996;26;20366;-67
2024/04/11 01:57:51;;;;;;;2.60;1.80;;;12.40;85.10;;;;;;5460956;26;20700;-67
2024/04/11 02:00:20;;;;;;;1.60;1.50;;;12.30;85.10;;;;;;5448018;26;20251;-67
2024/04/11 02:02:49;;;;;;;1.70;1.27;;;12.30;85.20;;;;;;5450008;26;20231;-68
2024/04/11 02:05:20;;;;;;;2.40;1.50;;;12.20;85.20;;;;;;5449315;26;20574;-67
2024/04/11 02:07:46;;;;;;;1.40;1.23;;;12.20;85.30;;;;;;5443052;26;20273;-67
2024/04/11 02:10:15;;;;;;;3.17;1.70;;;12.10;85.30;;;;;;5449515;26;20236;-67
2024/04/11 02:12:44;;;;;;;2.07;1.50;;;12.10;85.40;;;;;;5449547;26;20556;-68
2024/04/11 02:15:14;;;;;;;2.00;1.57;;;12.00;85.40;;;;;;5449555;26;20284;-69
2024/04/11 02:17:40;;;;;;;3.53;1.57;;;11.90;85.60;;;;;;5441822;26;20591;-67
2024/04/11 02:20:13;;;;;;;3.87;2.40;;;11.80;85.80;;;;;;5448925;26;20282;-68
2024/04/11 02:22:39;;;;;;;3.67;2.40;;;11.80;86.00;;;;;;5438661;26;20246;-69
2024/04/11 02:25:09;;;;;;;7.80;2.93;;;11.70;86.00;;;;;;5424146;26;20244;-67
2024/04/11 02:27:36;;;;;;;6.13;3.70;;;11.70;86.10;;;;;;5449731;26;20717;-68
2024/04/11 02:30:09;;;;;;;7.00;4.67;;;11.70;86.20;;;;;;5443685;26;20266;-68
2024/04/11 02:32:41;;;;;;;12.03;6.57;;;11.80;86.20;;;;;;5442707;26;20235;-68
2024/04/11 02:35:11;;;;;;;14.43;7.70;;;11.70;86.10;;;;;;5449007;26;20234;-68
2024/04/11 02:37:38;;;;;;;11.97;6.40;;;11.70;86.10;;;;;;5441688;26;20251;-67
2024/04/11 02:40:09;;;;;;;12.07;6.87;;;11.80;86.20;;;;;;5448190;26;20238;-67
2024/04/11 02:42:37;;;;;;;7.97;5.33;;;11.70;86.20;;;;;;5448191;26;20232;-67
2024/04/11 02:45:14;;;;;;;6.50;4.57;;;11.70;86.30;;;;;;5449538;26;20357;-68
2024/04/11 02:47:41;;;;;;;7.93;4.60;;;11.70;86.40;;;;;;5448660;26;20441;-67
2024/04/11 02:50:15;;;;;;;6.67;3.90;;;11.60;86.60;;;;;;5448660;26;20310;-67
2024/04/11 02:52:41;;;;;;;4.13;2.77;;;11.50;86.60;;;;;;5432160;26;20226;-67
2024/04/11 02:55:10;;;;;;;2.87;2.57;;;11.30;86.80;;;;;;5441129;26;20762;-67
2024/04/11 02:57:37;;;;;;;3.10;2.20;;;11.30;87.10;;;;;;5447211;26;20666;-67
2024/04/11 03:00:09;;;;;;;2.57;2.10;;;11.20;87.10;;;;;;5448905;26;20278;-67
2024/04/11 03:02:37;;;;;;;2.23;1.97;;;11.10;87.20;;;;;;5445874;26;20302;-68
2024/04/11 03:05:06;;;;;;;4.03;2.30;;;11.10;87.50;;;;;;5446649;26;20735;-67
2024/04/11 03:07:32;;;;;;;4.30;2.47;;;11.00;87.60;;;;;;5448676;26;20229;-67
2024/04/11 03:10:01;;;;;;;2.43;2.20;;;11.00;87.70;;;;;;5446285;26;20538;-67
2024/04/11 03:12:28;;;;;;;4.17;2.70;;;10.90;87.80;;;;;;5448666;26;20352;-69
2024/04/11 03:14:57;;;;;;;5.30;2.37;;;10.90;88.00;;;;;;5440243;26;20243;-67
2024/04/11 03:17:26;;;;;;;2.70;2.20;;;10.90;88.20;;;;;;5453372;26;20234;-68
2024/04/11 03:19:54;;;;;;;2.27;2.13;;;10.90;88.30;;;;;;5444510;26;20285;-67
2024/04/11 03:22:20;;;;;;;2.10;1.90;;;10.90;88.30;;;;;;5438479;26;20277;-67
2024/04/11 03:24:49;;;;;;;3.37;1.90;;;11.00;88.50;;;;;;5447718;26;20767;-67
2024/04/11 03:27:16;;;;;;;2.50;1.87;;;11.00;88.50;;;;;;5448256;26;20416;-67
2024/04/11 03:29:45;;;;;;;2.03;1.50;;;11.00;88.40;;;;;;5440546;26;20234;-69
2024/04/11 03:32:11;;;;;;;3.37;1.90;;;11.00;88.40;;;;;;5448003;26;20230;-69
2024/04/11 03:34:43;;;;;;;1.70;1.40;;;11.00;88.50;;;;;;5444538;26;20238;-68
2024/04/11 03:37:09;;;;;;;1.30;1.20;;;10.90;88.50;;;;;;5436254;26;20683;-68
2024/04/11 03:39:38;;;;;;;1.90;1.10;;;10.90;88.60;;;;;;5448634;26;20273;-69
2024/04/11 03:42:09;;;;;;;2.37;1.30;;;10.90;88.70;;;;;;5445791;26;20370;-69
2024/04/11 03:44:39;;;;;;;4.40;1.50;;;10.90;88.80;;;;;;5444118;26;20246;-68
2024/04/11 03:47:08;;;;;;;3.47;1.83;;;10.80;88.80;;;;;;5442758;26;20280;-68
2024/04/11 03:49:39;;;;;;;3.83;1.70;;;10.70;89.00;;;;;;5418460;26;20576;-68
2024/04/11 03:52:08;;;;;;;3.57;2.27;;;10.70;89.90;;;;;;5423719;26;20346;-68
2024/04/11 03:54:37;;;;;;;3.70;2.13;;;10.60;89.20;;;;;;5435055;26;20847;-68
2024/04/11 03:57:07;;;;;;;5.90;2.83;;;10.60;89.50;;;;;;5456843;26;20573;-68
2024/04/11 03:59:36;;;;;;;5.77;2.70;;;10.60;89.60;;;;;;5450823;26;20245;-68
2024/04/11 04:02:02;;;;;;;3.10;2.80;;;10.60;89.70;;;;;;5430751;26;20781;-68
2024/04/11 04:04:32;;;;;;;3.83;2.93;;;10.60;89.90;;;;;;5451697;26;20231;-67
2024/04/11 04:06:58;;;;;;;5.20;3.57;;;10.60;89.90;;;;;;5443815;26;20234;-68
2024/04/11 04:09:29;;;;;;;5.90;3.47;;;10.60;89.90;;;;;;5449626;26;20537;-67
2024/04/11 04:11:56;;;;;;;5.03;3.63;;;10.60;89.90;;;;;;5445061;26;20373;-68
2024/04/11 04:14:25;;;;;;;4.73;3.63;;;10.60;90.00;;;;;;5449330;26;20238;-67
2024/04/11 04:16:52;;;;;;;7.07;4.03;;;10.70;90.00;;;;;;5444927;26;20268;-69
2024/04/11 04:19:22;;;;;;;4.77;3.20;;;10.70;90.00;;;;;;5450933;26;20230;-68
2024/04/11 04:21:48;;;;;;;6.07;3.60;;;10.70;90.00;;;;;;5449185;26;20385;-68
2024/04/11 04:24:17;;;;;;;7.97;4.23;;;10.70;90.00;;;;;;5447314;26;20277;-68
2024/04/11 04:26:46;;;;;;;7.23;3.83;;;10.80;90.00;;;;;;5450830;26;20229;-67
2024/04/11 04:29:17;;;;;;;7.57;3.50;;;10.80;90.00;;;;;;5449932;26;20349;-68
2024/04/11 04:31:43;;;;;;;8.03;3.73;;;10.80;90.00;;;;;;5436401;26;20299;-69
2024/04/11 04:34:15;;;;;;;9.47;3.67;;;10.80;90.00;;;;;;5449845;26;20237;-67
2024/04/11 04:36:41;;;;;;;7.77;3.43;;;10.80;90.00;;;;;;5448450;26;20342;-66
2024/04/11 04:39:13;;;;;;;6.47;3.20;;;10.90;90.00;;;;;;5445883;26;20242;-66
2024/04/11 04:41:39;;;;;;;5.50;2.90;;;10.90;90.10;;;;;;5432359;26;20599;-66
2024/04/11 04:44:12;;;;;;;5.17;3.03;;;10.90;90.00;;;;;;5444992;26;20280;-66
2024/04/11 04:46:39;;;;;;;6.10;2.67;;;10.90;90.10;;;;;;5438321;26;20262;-66
2024/04/11 04:49:09;;;;;;;5.93;2.57;;;10.90;90.10;;;;;;5445489;26;20234;-66
2024/04/11 04:51:36;;;;;;;4.03;2.30;;;10.90;90.20;;;;;;5448498;26;20280;-66
2024/04/11 04:54:05;;;;;;;5.43;2.80;;;10.90;90.20;;;;;;5462007;26;20284;-67
2024/04/11 04:56:32;;;;;;;5.30;2.67;;;10.80;90.20;;;;;;5447261;26;20264;-66
2024/04/11 04:59:02;;;;;;;6.33;2.53;;;10.90;90.30;;;;;;5449802;26;20306;-66
2024/04/11 05:01:33;;;;;;;2.20;1.80;;;10.90;90.30;;;;;;5450509;26;20851;-66
2024/04/11 05:04:01;;;;;;;4.30;2.10;;;10.90;90.30;;;;;;5450148;26;20291;-66
2024/04/11 05:06:29;;;;;;;3.37;2.43;;;10.90;90.40;;;;;;5440564;26;20831;-66
2024/04/11 05:08:59;;;;;;;5.57;2.37;;;11.00;90.40;;;;;;5438982;26;20299;-66
2024/04/11 05:11:31;;;;;;;2.77;2.23;;;11.00;90.40;;;;;;5439489;26;20253;-66
2024/04/11 05:14:07;;;;;;;4.17;2.30;;;11.00;90.50;;;;;;5437307;26;20305;-65
2024/04/11 05:16:36;;;;;;;4.40;1.93;;;11.10;90.50;;;;;;5426629;26;20226;-66
2024/04/11 05:19:07;;;;;;;3.80;2.20;;;11.20;90.50;;;;;;5449839;26;20234;-66
2024/04/11 05:21:33;;;;;;;6.30;2.70;;;11.30;90.50;;;;;;5423319;26;20276;-65
2024/04/11 05:24:03;;;;;;;8.77;2.63;;;11.40;90.50;;;;;;5442199;26;20759;-66
2024/04/11 05:26:30;;;;;;;3.23;2.10;;;11.40;90.40;;;;;;5436320;26;21378;-66
2024/04/11 05:28:59;;;;;;;7.43;2.30;;;11.40;90.40;;;;;;5448431;26;20242;-66
2024/04/11 05:31:25;;;;;;;3.27;1.97;;;11.50;90.50;;;;;;5446495;26;20649;-66
2024/04/11 05:33:59;;;;;;;4.07;2.03;;;11.60;90.50;;;;;;5436816;26;20281;-66
2024/04/11 05:36:25;;;;;;;4.93;2.33;;;11.60;90.40;;;;;;5439726;26;20295;-66
2024/04/11 05:38:55;;;;;;;4.93;2.30;;;11.60;90.50;;;;;;5445508;26;20302;-66
2024/04/11 05:41:21;;;;;;;4.13;2.00;;;11.70;90.60;;;;;;5434985;26;20238;-67
2024/04/11 05:43:50;;;;;;;4.63;1.80;;;11.70;90.50;;;;;;5443596;26;20279;-67
2024/04/11 05:46:18;;;;;;;4.50;2.43;;;11.80;90.60;;;;;;5439160;26;20246;-66
2024/04/11 05:48:47;;;;;;;3.73;2.07;;;11.80;90.60;;;;;;5456778;26;20428;-66
2024/04/11 05:51:16;;;;;;;5.10;2.10;;;11.90;90.80;;;;;;5441875;26;20312;-66
2024/04/11 05:53:46;;;;;;;4.37;2.43;;;11.90;90.80;;;;;;5446057;26;20301;-67
2024/04/11 05:56:13;;;;;;;5.80;2.43;;;12.00;90.90;;;;;;5449886;26;20260;-66
2024/04/11 05:58:42;;;;;;;5.93;2.80;;;12.10;91.00;;;;;;5448405;26;20739;-66
2024/04/11 06:01:13;;;;;;;3.83;2.30;;;12.10;91.00;;;;;;5439650;26;20226;-64
2024/04/11 06:03:46;;;;;;;4.73;2.60;;;12.20;91.10;;;;;;5423642;26;20322;-66
2024/04/11 06:06:15;;;;;;;3.17;2.07;;;12.30;91.20;;;;;;5439977;26;20678;-66
2024/04/11 06:08:44;;;;;;;4.43;2.30;;;12.30;91.30;;;;;;5444140;26;20282;-65
2024/04/11 06:11:11;;;;;;;7.63;2.60;;;12.40;91.40;;;;;;5431781;26;20232;-65
2024/04/11 06:13:40;;;;;;;4.23;2.53;;;12.40;91.50;;;;;;5429457;26;20355;-65
2024/04/11 06:16:06;;;;;;;4.77;2.60;;;12.50;91.60;;;;;;5444221;26;20337;-66
2024/04/11 06:18:36;;;;;;;6.13;2.77;;;12.60;91.80;;;;;;5429534;26;20328;-66
2024/04/11 06:21:04;;;;;;;2.93;2.20;;;12.70;91.90;;;;;;5437758;26;20302;-66
2024/04/11 06:23:36;;;;;;;3.73;2.00;;;12.80;92.00;;;;;;5439061;26;20294;-66
2024/04/11 06:26:02;;;;;;;5.23;2.30;;;12.90;92.00;;;;;;5441483;26;20362;-66
2024/04/11 06:28:33;;;;;;;8.23;2.70;;;13.00;92.10;;;;;;5445222;26;20367;-66
2024/04/11 06:31:01;;;;;;;2.67;1.90;;;13.10;92.20;;;;;;5446100;26;20231;-66
2024/04/11 06:33:31;;;;;;;2.70;1.83;;;13.20;92.20;;;;;;5444685;26;20274;-66
2024/04/11 06:35:58;;;;;;;4.97;1.90;;;13.30;92.20;;;;;;5434812;26;20366;-66
2024/04/11 06:38:29;;;;;;;5.97;2.20;;;13.40;92.20;;;;;;5417458;26;20244;-65
2024/04/11 06:40:59;;;;;;;10.90;2.57;;;13.50;92.30;;;;;;5434058;26;20265;-66
2024/04/11 06:43:28;;;;;;;7.00;1.80;;;13.60;92.30;;;;;;5427067;26;20339;-66
2024/04/11 06:45:55;;;;;;;3.90;1.90;;;13.80;92.40;;;;;;5435514;26;20669;-66
2024/04/11 06:48:24;;;;;;;2.53;1.37;;;13.90;92.30;;;;;;5438558;26;20282;-66
2024/04/11 06:50:53;;;;;;;4.30;1.50;;;14.00;92.20;;;;;;5441281;26;20229;-66
2024/04/11 06:53:22;;;;;;;3.07;1.60;;;14.10;92.00;;;;;;5436938;26;20237;-66
2024/04/11 06:55:49;;;;;;;4.10;1.37;;;14.20;91.70;;;;;;5445652;26;20264;-66
2024/04/11 06:58:23;;;;;;;3.37;1.40;;;14.30;91.80;;;;;;5415635;26;20379;-66
2024/04/11 07:00:58;;;;;;;3.03;1.23;;;14.40;91.50;;;;;;5439701;26;20328;-66
2024/04/11 07:03:27;;;;;;;1.37;1.27;;;14.50;91.30;;;;;;5443829;26;20233;-66
2024/04/11 07:05:55;;;;;;;3.07;1.50;;;14.70;91.60;;;;;;5444119;26;20594;-66
2024/04/11 07:08:29;;;;;;;3.70;1.63;;;14.80;91.90;;;;;;5435222;26;20277;-66
2024/04/11 07:10:58;;;;;;;1.63;1.20;;;15.00;91.80;;;;;;5432621;26;20237;-66
2024/04/11 07:13:30;;;;;;;2.90;1.20;;;15.20;91.70;;;;;;5443431;26;20344;-66
2024/04/11 07:15:58;;;;;;;1.00;1.00;;;15.30;91.60;;;;;;5418549;26;20238;-66
2024/04/11 07:18:39;;;;;;;2.50;1.40;;;15.50;91.50;;;;;;5435714;26;20247;-66
2024/04/11 07:21:07;;;;;;;2.30;1.30;;;15.60;91.20;;;;;;5438918;26;20988;-66
2024/04/11 07:23:42;;;;;;;3.00;1.23;;;15.70;91.20;;;;;;5442049;26;20257;-66
2024/04/11 07:26:11;;;;;;;3.60;1.10;;;15.80;90.90;;;;;;5424952;26;20281;-65
2024/04/11 07:28:45;;;;;;;2.67;1.13;;;15.90;90.80;;;;;;5442148;26;20846;-66
2024/04/11 07:31:14;;;;;;;8.60;1.30;;;16.00;90.50;;;;;;5431678;26;20242;-66
2024/04/11 07:33:43;;;;;;;2.40;1.30;;;16.10;90.00;;;;;;5425785;26;20246;-66
2024/04/11 07:36:13;;;;;;;3.67;1.40;;;16.20;89.40;;;;;;5442763;26;20230;-67
2024/04/11 07:38:42;;;;;;;2.83;1.17;;;16.30;89.30;;;;;;5425889;26;20242;-66
2024/04/11 07:41:16;;;;;;;2.00;1.17;;;16.40;88.80;;;;;;5433290;26;20733;-68
2024/04/11 07:43:51;;;;;;;1.67;0.90;;;16.40;88.50;;;;;;5444518;26;20245;-66
2024/04/11 07:46:22;;;;;;;1.63;0.93;;;16.50;88.40;;;;;;5443414;26;20636;-66
2024/04/11 07:48:51;;;;;;;0.87;0.87;;;16.70;88.10;;;;;;5444042;26;20227;-66
2024/04/11 07:51:20;;;;;;;3.33;1.23;;;16.70;87.40;;;;;;5435049;26;20729;-66
2024/04/11 07:53:48;;;;;;;2.40;1.30;;;16.80;86.60;;;;;;5443277;26;20706;-66
2024/04/11 07:56:20;;;;;;;4.17;1.40;;;16.80;86.00;;;;;;5443972;26;20469;-66
2024/04/11 07:58:53;;;;;;;1.40;1.03;;;16.90;86.00;;;;;;5445091;26;20226;-66
2024/04/11 08:01:30;;;;;;;2.70;1.50;;;17.00;86.20;;;;;;5447842;26;20282;-66
2024/04/11 08:03:57;;;;;;;2.07;1.30;;;17.00;86.70;;;;;;5434598;26;20527;-66
2024/04/11 08:06:26;;;;;;;1.63;1.20;;;17.20;86.10;;;;;;5446806;26;20314;-66
2024/04/11 08:08:52;;;;;;;2.60;1.40;;;17.30;85.40;;;;;;5413353;26;20251;-66
2024/04/11 08:11:21;;;;;;;1.60;1.37;;;17.40;85.30;;;;;;5442216;26;20252;-66
2024/04/11 08:13:52;;;;;;;3.37;1.40;;;17.50;84.20;;;;;;5442721;26;20566;-67
2024/04/11 08:16:21;;;;;;;3.10;1.33;;;17.60;83.70;;;;;;5434277;26;20373;-66
2024/04/11 08:18:47;;;;;;;2.70;1.13;;;17.70;82.90;;;;;;5447194;26;20227;-66
2024/04/11 08:21:16;;;;;;;5.13;1.37;;;17.80;82.90;;;;;;5445807;26;20243;-66
2024/04/11 08:23:43;;;;;;;1.57;1.10;;;17.80;82.20;;;;;;5442079;26;20233;-66
2024/04/11 08:26:12;;;;;;;2.33;1.17;;;17.90;81.90;;;;;;5447690;26;20237;-66
2024/04/11 08:28:41;;;;;;;4.90;1.15;;;17.90;81.70;;;;;;5444444;26;20229;-66
2024/04/11 08:31:14;;;;;;;3.35;1.40;;;18.00;81.30;;;;;;5445952;26;20238;-67
2024/04/11 08:33:40;;;;;;;2.75;1.08;;;18.10;79.30;;;;;;5435006;26;20696;-67
2024/04/11 08:36:10;;;;;;;2.72;1.40;;;18.10;79.30;;;;;;5438896;26;20345;-67
2024/04/11 08:38:40;;;;;;;1.95;1.00;;;18.20;79.80;;;;;;5440253;26;20264;-67
2024/04/11 08:41:11;;;;;;;1.52;1.15;;;18.20;79.30;;;;;;5430298;26;20756;-67
2024/04/11 08:43:39;;;;;;;1.97;1.10;;;18.30;79.00;;;;;;5431573;26;20232;-67
2024/04/11 08:46:12;;;;;;;2.13;1.15;;;18.30;78.90;;;;;;5414384;26;20292;-66
2024/04/11 08:48:40;;;;;;;2.35;1.00;;;18.40;79.10;;;;;;5430273;26;20231;-67
2024/04/11 08:51:14;;;;;;;1.63;0.80;;;18.50;79.30;;;;;;5416067;26;20739;-67
2024/04/11 08:53:45;;;;;;;1.85;1.40;;;18.60;79.00;;;;;;5434099;26;20621;-67
2024/04/11 08:56:16;;;;;;;3.35;1.20;;;18.70;78.60;;;;;;5442621;26;20302;-67
2024/04/11 08:58:43;;;;;;;1.10;0.85;;;18.70;78.30;;;;;;5434923;26;20230;-67
2024/04/11 09:01:18;;;;;;;2.78;0.90;;;18.70;77.50;;;;;;5445693;26;20234;-66
2024/04/11 09:03:48;;;;;;;5.75;1.20;;;18.80;77.30;;;;;;5422290;26;20242;-67
2024/04/11 09:06:23;;;;;;;2.40;1.20;;;18.90;74.70;;;;;;5442453;26;20246;-67
2024/04/11 09:08:50;;;;;;;2.75;1.35;;;18.90;73.40;;;;;;5432890;26;20225;-67
2024/04/11 09:11:19;;;;;;;2.85;1.25;;;18.90;72.50;;;;;;5439204;26;20276;-67
2024/04/11 09:13:45;;;;;;;0.73;0.73;;;18.90;71.90;;;;;;5440618;26;20242;-67
2024/04/11 09:16:21;;;;;;;2.63;0.77;;;18.90;72.10;;;;;;5436579;26;20235;-67
2024/04/11 09:18:47;;;;;;;0.85;0.85;;;18.90;72.10;;;;;;5447161;26;20459;-66
2024/04/11 09:21:17;;;;;;;3.75;1.00;;;19.00;71.90;;;;;;5439462;26;20592;-67
2024/04/11 09:23:46;;;;;;;3.05;1.05;;;19.00;71.60;;;;;;5436130;26;20241;-66
2024/04/11 09:26:15;;;;;;;3.10;1.10;;;19.10;71.80;;;;;;5445398;26;20238;-66
2024/04/11 09:28:42;;;;;;;2.70;1.10;;;19.10;71.20;;;;;;5441732;26;20230;-66
2024/04/11 09:31:12;;;;;;;7.20;1.20;;;19.20;70.40;;;;;;5438336;26;20574;-66
2024/04/11 09:33:42;;;;;;;3.72;1.50;;;19.30;69.80;;;;;;5444993;26;20230;-67
2024/04/11 09:36:15;;;;;;;2.80;1.10;;;19.40;68.60;;;;;;5440986;26;20250;-67
2024/04/11 09:38:42;;;;;;;3.20;0.98;;;19.40;67.80;;;;;;5444184;26;20268;-67
2024/04/11 09:41:13;;;;;;;3.45;1.00;;;19.50;67.50;;;;;;5443012;26;20345;-67
2024/04/11 09:43:41;;;;;;;1.95;1.23;;;19.60;66.20;;;;;;5446001;26;20230;-68
2024/04/11 09:46:15;;;;;;;1.63;0.90;;;19.60;65.70;;;;;;5426230;26;20301;-67
2024/04/11 09:48:45;;;;;;;1.85;1.13;;;19.60;65.60;;;;;;5433044;26;20231;-67
2024/04/11 09:51:15;;;;;;;2.45;1.15;;;19.60;65.80;;;;;;5436500;26;20319;-66
2024/04/11 09:53:42;;;;;;;1.27;1.10;;;19.60;65.00;;;;;;5445628;26;20273;-67
2024/04/11 09:56:14;;;;;;;0.95;0.90;;;19.60;65.50;;;;;;5422544;26;20357;-67
2024/04/11 09:58:43;;;;;;;1.45;1.00;;;19.70;66.20;;;;;;5445934;26;20284;-67
2024/04/11 10:01:29;;;;;;;1.67;0.98;;;19.80;66.10;;;;;;5435246;26;20269;-67
2024/04/11 10:04:04;;;;;;;1.70;0.98;;;20.00;65.40;;;;;;5433991;26;20276;-67
2024/04/11 10:06:35;;;;;;;2.38;1.60;;;20.10;64.90;;;;;;5440874;26;20297;-67
2024/04/11 10:09:19;;;;;;;4.40;1.10;;;20.10;63.70;;;;;;5436021;26;20377;-67
2024/04/11 10:11:47;;;;;;;3.17;1.00;;;20.10;64.50;;;;;;5425613;26;20355;-67
2024/04/11 10:14:20;;;;;;;4.25;0.90;;;20.10;63.40;;;;;;5436219;26;20938;-67
2024/04/11 10:16:53;;;;;;;0.80;0.80;;;20.10;63.20;;;;;;5438409;26;20239;-67
2024/04/11 10:19:31;;;;;;;1.85;0.98;;;20.10;62.90;;;;;;5419393;26;20239;-67
2024/04/11 10:22:04;;;;;;;0.75;0.75;;;20.10;63.00;;;;;;5425254;26;20238;-67
2024/04/11 10:24:34;;;;;;;3.35;1.30;;;20.10;62.80;;;;;;5436213;26;20594;-67
2024/04/11 10:27:11;;;;;;;1.00;0.85;;;20.10;61.80;;;;;;5443287;26;20342;-68
2024/04/11 10:29:43;;;;;;;2.90;1.75;;;20.10;61.60;;;;;;5445352;26;20353;-67
2024/04/11 10:32:13;;;;;;;1.02;0.85;;;20.10;61.40;;;;;;5445919;26;20256;-67
2024/04/11 10:34:48;;;;;;;1.75;1.10;;;20.00;60.90;;;;;;5441999;26;20806;-67
2024/04/11 10:37:23;;;;;;;1.25;1.00;;;20.00;60.60;;;;;;5419323;26;20234;-67
2024/04/11 10:39:54;;;;;;;3.08;0.90;;;20.00;60.80;;;;;;5424462;26;20374;-68
2024/04/11 10:42:29;;;;;;;2.70;1.23;;;20.00;60.50;;;;;;5446227;26;20227;-67
2024/04/11 10:44:59;;;;;;;1.85;1.00;;;19.90;60.50;;;;;;5425654;26;20268;-67
2024/04/11 10:47:26;;;;;;;1.30;0.70;;;19.90;60.40;;;;;;5428450;26;20246;-67
2024/04/11 10:49:59;;;;;;;2.78;0.80;;;19.90;60.60;;;;;;5428626;26;20726;-67
2024/04/11 10:52:27;;;;;;;3.13;1.00;;;19.90;61.60;;;;;;5418352;26;20312;-67
2024/04/11 10:55:12;;;;;;;1.23;1.00;;;19.90;60.20;;;;;;5457875;26;20238;-67
2024/04/11 10:57:41;;;;;;;1.20;1.10;;;19.90;60.50;;;;;;5436208;26;20269;-67
2024/04/11 11:00:22;;;;;;;1.27;0.95;;;20.00;60.50;;;;;;5438128;26;20355;-67
2024/04/11 11:02:58;;;;;;;1.30;0.82;;;20.10;59.70;;;;;;5434050;26;20301;-67
2024/04/11 11:05:42;;;;;;;0.95;0.82;;;20.10;59.80;;;;;;5426655;26;20339;-67
2024/04/11 11:08:10;;;;;;;1.63;0.93;;;20.20;59.80;;;;;;5428868;26;20230;-67
2024/04/11 11:10:40;;;;;;;0.98;0.93;;;20.30;59.70;;;;;;5435798;26;20351;-67
2024/04/11 11:13:07;;;;;;;1.33;0.90;;;20.20;59.60;;;;;;5443293;26;20233;-67
2024/04/11 11:15:36;;;;;;;1.45;1.05;;;20.30;59.80;;;;;;5443479;26;20245;-67
2024/04/11 11:18:06;;;;;;;1.40;0.98;;;20.30;59.40;;;;;;5436197;26;20670;-67
2024/04/11 11:20:37;;;;;;;2.00;0.90;;;20.30;58.90;;;;;;5427593;26;20339;-67
2024/04/11 11:23:13;;;;;;;2.65;0.98;;;20.40;59.00;;;;;;5438325;26;20276;-67
2024/04/11 11:25:42;;;;;;;1.52;0.88;;;20.40;58.90;;;;;;5431241;26;20236;-67
2024/04/11 11:28:12;;;;;;;3.20;1.20;;;20.40;59.10;;;;;;5430130;26;20569;-67
2024/04/11 11:30:48;;;;;;;4.82;1.10;;;20.50;59.30;;;;;;5431725;26;20657;-67
2024/04/11 11:33:17;;;;;;;1.30;0.90;;;20.50;59.00;;;;;;5434168;26;20277;-67
2024/04/11 11:35:47;;;;;;;0.95;0.77;;;20.60;58.90;;;;;;5444712;26;20346;-67
2024/04/11 11:38:19;;;;;;;1.05;0.85;;;20.60;59.00;;;;;;5446124;26;20369;-67
2024/04/11 11:40:54;;;;;;;1.45;0.93;;;20.80;59.10;;;;;;5436844;26;20327;-67
2024/04/11 11:43:20;;;;;;;1.83;0.90;;;20.90;58.80;;;;;;5429792;26;20551;-67
2024/04/11 11:48:31;;;;;;;3.63;1.10;;;20.90;58.40;;;;;;5453421;26;20342;-67
2024/04/11 11:51:00;;;;;;;2.60;0.90;;;20.90;58.30;;;;;;5443259;26;20665;-67
2024/04/11 11:53:32;;;;;;;0.70;0.70;;;20.90;58.40;;;;;;5443898;26;20230;-67
2024/04/11 11:56:05;;;;;;;1.70;0.95;;;20.90;58.50;;;;;;5442818;26;20281;-67
2024/04/11 11:58:35;;;;;;;0.70;0.70;;;21.00;57.80;;;;;;5420938;26;20749;-67
2024/04/11 12:01:02;;;;;;;0.80;0.80;;;21.00;57.80;;;;;;5430295;26;20673;-67
2024/04/11 12:03:31;;;;;;;5.47;1.10;;;21.20;57.90;;;;;;5439745;26;20783;-67
2024/04/11 12:06:00;;;;;;;4.18;1.00;;;21.20;57.00;;;;;;5435048;26;20227;-67
2024/04/11 12:08:37;;;;;;;1.10;1.00;;;21.20;57.00;;;;;;5454436;26;20233;-67
2024/04/11 12:14:02;;;;;;;2.38;1.10;;;21.10;56.80;;;;;;5420851;26;20289;-67
2024/04/11 12:16:38;;;;;;;1.80;1.08;;;21.00;56.50;;;;;;5435696;26;20286;-65
2024/04/11 12:19:08;;;;;;;1.30;1.08;;;21.00;56.80;;;;;;5452678;26;20241;-66
2024/04/11 12:21:44;;;;;;;1.17;1.02;;;20.90;56.70;;;;;;5451553;26;20282;-66
2024/04/11 12:24:15;;;;;;;1.02;0.90;;;20.80;56.70;;;;;;5444040;26;20277;-66
2024/04/11 12:26:42;;;;;;;2.03;1.00;;;20.80;56.90;;;;;;5430145;26;20828;-66
2024/04/11 12:29:12;;;;;;;2.25;0.90;;;20.90;56.40;;;;;;5446938;26;20292;-66
2024/04/11 12:31:39;;;;;;;2.28;1.10;;;21.00;56.40;;;;;;5455486;26;20221;-66
2024/04/11 12:34:09;;;;;;;0.75;0.75;;;21.00;56.50;;;;;;5457915;26;20276;-66
2024/04/11 12:36:50;;;;;;;4.50;0.70;;;21.10;56.70;;;;;;5442674;26;20292;-66
2024/04/11 12:39:32;;;;;;;1.20;1.00;;;21.30;56.70;;;;;;5438890;26;20346;-66
2024/04/11 12:42:00;;;;;;;1.65;0.80;;;21.50;56.30;;;;;;5440855;26;20829;-66
2024/04/11 12:44:35;;;;;;;2.20;0.90;;;21.50;55.60;;;;;;5439649;26;20229;-66
2024/04/11 12:47:13;;;;;;;3.13;0.80;;;21.50;55.30;;;;;;5448746;26;20265;-66
2024/04/11 12:49:47;;;;;;;1.75;0.90;;;21.40;54.80;;;;;;5447884;26;20242;-66
2024/04/11 12:52:14;;;;;;;1.48;1.10;;;21.40;54.60;;;;;;5449138;26;20352;-66
2024/04/11 12:54:47;;;;;;;1.23;1.13;;;21.30;54.60;;;;;;5454161;26;20425;-66
2024/04/11 12:57:17;;;;;;;0.93;0.80;;;21.30;54.90;;;;;;5442711;26;20681;-66
2024/04/11 12:59:48;;;;;;;5.32;2.70;;;21.20;54.80;;;;;;5434423;26;20317;-66
2024/04/11 13:02:19;;;;;;;5.38;4.45;;;21.30;54.90;;;;;;5457242;26;20226;-66
2024/04/11 13:04:54;;;;;;;8.43;4.53;;;21.30;54.60;;;;;;5448987;26;20767;-66